sensor_id;sensor_type;location;lat;lon;timestamp;P1;durP1;ratioP1;P2;durP2;ratioP2
22080;SDS011;11207;59.512;18.050;2024-01-30T00:02:26;15.23;;;8.20;;
22080;SDS011;11207;59.512;18.050;2024-01-30T00:04:52;17.77;;;9.83;;
22080;SDS011;11207;59.512;18.050;2024-01-30T00:07:17;18.60;;;8.67;;
22080;SDS011;11207;59.512;18.050;2024-01-30T00:09:43;16.43;;;8.87;;
22080;SDS011;11207;59.512;18.050;2024-01-30T00:12:12;19.43;;;9.60;;
22080;SDS011;11207;59.512;18.050;2024-01-30T00:14:38;26.47;;;10.77;;
22080;SDS011;11207;59.512;18.050;2024-01-30T00:17:06;19.33;;;10.37;;
22080;SDS011;11207;59.512;18.050;2024-01-30T00:19:31;19.93;;;10.10;;
22080;SDS011;11207;59.512;18.050;2024-01-30T00:21:57;14.83;;;8.17;;
22080;SDS011;11207;59.512;18.050;2024-01-30T00:24:26;18.27;;;9.40;;
22080;SDS011;11207;59.512;18.050;2024-01-30T00:26:51;20.23;;;9.23;;
22080;SDS011;11207;59.512;18.050;2024-01-30T00:29:17;19.23;;;9.87;;
22080;SDS011;11207;59.512;18.050;2024-01-30T00:31:45;24.70;;;10.40;;
22080;SDS011;11207;59.512;18.050;2024-01-30T00:34:10;19.27;;;10.17;;
22080;SDS011;11207;59.512;18.050;2024-01-30T00:36:36;20.27;;;9.90;;
22080;SDS011;11207;59.512;18.050;2024-01-30T00:39:05;15.30;;;8.73;;
22080;SDS011;11207;59.512;18.050;2024-01-30T00:41:33;20.27;;;10.37;;
22080;SDS011;11207;59.512;18.050;2024-01-30T00:44:02;15.43;;;8.40;;
22080;SDS011;11207;59.512;18.050;2024-01-30T00:46:27;15.70;;;8.87;;
22080;SDS011;11207;59.512;18.050;2024-01-30T00:48:53;25.50;;;10.63;;
22080;SDS011;11207;59.512;18.050;2024-01-30T00:51:21;17.23;;;9.30;;
22080;SDS011;11207;59.512;18.050;2024-01-30T00:53:47;21.83;;;10.10;;
22080;SDS011;11207;59.512;18.050;2024-01-30T00:56:13;24.43;;;10.40;;
22080;SDS011;11207;59.512;18.050;2024-01-30T00:58:41;21.67;;;9.50;;
22080;SDS011;11207;59.512;18.050;2024-01-30T01:01:07;18.27;;;9.20;;
22080;SDS011;11207;59.512;18.050;2024-01-30T01:03:33;24.40;;;9.90;;
22080;SDS011;11207;59.512;18.050;2024-01-30T01:05:58;18.53;;;8.17;;
22080;SDS011;11207;59.512;18.050;2024-01-30T01:08:24;13.80;;;8.40;;
22080;SDS011;11207;59.512;18.050;2024-01-30T01:10:50;18.60;;;9.43;;
22080;SDS011;11207;59.512;18.050;2024-01-30T01:13:15;17.20;;;9.33;;
22080;SDS011;11207;59.512;18.050;2024-01-30T01:15:41;19.87;;;10.57;;
22080;SDS011;11207;59.512;18.050;2024-01-30T01:18:09;23.60;;;10.77;;
22080;SDS011;11207;59.512;18.050;2024-01-30T01:20:35;19.40;;;10.43;;
22080;SDS011;11207;59.512;18.050;2024-01-30T01:23:00;23.37;;;11.30;;
22080;SDS011;11207;59.512;18.050;2024-01-30T01:25:26;24.60;;;10.10;;
22080;SDS011;11207;59.512;18.050;2024-01-30T01:27:52;26.00;;;10.90;;
22080;SDS011;11207;59.512;18.050;2024-01-30T01:30:17;27.67;;;11.80;;
22080;SDS011;11207;59.512;18.050;2024-01-30T01:32:50;20.23;;;9.33;;
22080;SDS011;11207;59.512;18.050;2024-01-30T01:35:20;20.40;;;10.97;;
22080;SDS011;11207;59.512;18.050;2024-01-30T01:37:47;23.40;;;10.87;;
22080;SDS011;11207;59.512;18.050;2024-01-30T01:40:19;23.53;;;10.97;;
22080;SDS011;11207;59.512;18.050;2024-01-30T01:42:52;22.83;;;10.97;;
22080;SDS011;11207;59.512;18.050;2024-01-30T01:45:19;25.50;;;11.83;;
22080;SDS011;11207;59.512;18.050;2024-01-30T01:47:46;17.13;;;10.17;;
22080;SDS011;11207;59.512;18.050;2024-01-30T01:50:15;20.10;;;8.57;;
22080;SDS011;11207;59.512;18.050;2024-01-30T01:52:44;22.77;;;10.80;;
22080;SDS011;11207;59.512;18.050;2024-01-30T01:55:12;21.77;;;10.60;;
22080;SDS011;11207;59.512;18.050;2024-01-30T01:57:40;25.07;;;10.83;;
22080;SDS011;11207;59.512;18.050;2024-01-30T02:00:06;21.93;;;11.03;;
22080;SDS011;11207;59.512;18.050;2024-01-30T02:02:35;22.83;;;10.47;;
22080;SDS011;11207;59.512;18.050;2024-01-30T02:05:01;25.73;;;10.43;;
22080;SDS011;11207;59.512;18.050;2024-01-30T02:07:27;32.93;;;11.37;;
22080;SDS011;11207;59.512;18.050;2024-01-30T02:09:53;30.93;;;11.33;;
22080;SDS011;11207;59.512;18.050;2024-01-30T02:12:20;27.53;;;9.60;;
22080;SDS011;11207;59.512;18.050;2024-01-30T02:14:46;28.60;;;10.97;;
22080;SDS011;11207;59.512;18.050;2024-01-30T02:17:15;29.47;;;11.90;;
22080;SDS011;11207;59.512;18.050;2024-01-30T02:19:41;24.73;;;10.77;;
22080;SDS011;11207;59.512;18.050;2024-01-30T02:22:07;27.90;;;11.90;;
22080;SDS011;11207;59.512;18.050;2024-01-30T02:24:34;30.60;;;12.60;;
22080;SDS011;11207;59.512;18.050;2024-01-30T02:27:00;27.60;;;12.30;;
22080;SDS011;11207;59.512;18.050;2024-01-30T02:29:25;26.13;;;11.50;;
22080;SDS011;11207;59.512;18.050;2024-01-30T02:31:51;22.93;;;11.93;;
22080;SDS011;11207;59.512;18.050;2024-01-30T02:34:18;21.07;;;11.07;;
22080;SDS011;11207;59.512;18.050;2024-01-30T02:36:44;18.73;;;11.13;;
22080;SDS011;11207;59.512;18.050;2024-01-30T02:39:10;20.60;;;11.30;;
22080;SDS011;11207;59.512;18.050;2024-01-30T02:41:36;20.30;;;11.83;;
22080;SDS011;11207;59.512;18.050;2024-01-30T02:44:02;16.70;;;10.27;;
22080;SDS011;11207;59.512;18.050;2024-01-30T02:46:28;16.47;;;10.07;;
22080;SDS011;11207;59.512;18.050;2024-01-30T02:48:54;15.00;;;9.57;;
22080;SDS011;11207;59.512;18.050;2024-01-30T02:51:19;15.60;;;10.07;;
22080;SDS011;11207;59.512;18.050;2024-01-30T02:53:45;15.53;;;9.73;;
22080;SDS011;11207;59.512;18.050;2024-01-30T02:56:11;16.37;;;10.67;;
22080;SDS011;11207;59.512;18.050;2024-01-30T02:58:38;16.93;;;10.93;;
22080;SDS011;11207;59.512;18.050;2024-01-30T03:01:05;15.90;;;10.53;;
22080;SDS011;11207;59.512;18.050;2024-01-30T03:03:31;17.73;;;10.73;;
22080;SDS011;11207;59.512;18.050;2024-01-30T03:05:56;14.57;;;10.10;;
22080;SDS011;11207;59.512;18.050;2024-01-30T03:08:22;16.50;;;10.87;;
22080;SDS011;11207;59.512;18.050;2024-01-30T03:10:49;19.87;;;12.00;;
22080;SDS011;11207;59.512;18.050;2024-01-30T03:13:15;21.23;;;11.30;;
22080;SDS011;11207;59.512;18.050;2024-01-30T03:15:40;18.33;;;12.03;;
22080;SDS011;11207;59.512;18.050;2024-01-30T03:18:06;18.60;;;10.67;;
22080;SDS011;11207;59.512;18.050;2024-01-30T03:20:32;18.63;;;10.90;;
22080;SDS011;11207;59.512;18.050;2024-01-30T03:22:59;15.33;;;10.10;;
22080;SDS011;11207;59.512;18.050;2024-01-30T03:25:25;15.67;;;9.63;;
22080;SDS011;11207;59.512;18.050;2024-01-30T03:27:51;13.60;;;9.33;;
22080;SDS011;11207;59.512;18.050;2024-01-30T03:30:17;12.47;;;8.70;;
22080;SDS011;11207;59.512;18.050;2024-01-30T03:32:43;11.03;;;8.20;;
22080;SDS011;11207;59.512;18.050;2024-01-30T03:35:09;8.93;;;7.10;;
22080;SDS011;11207;59.512;18.050;2024-01-30T03:37:35;10.77;;;8.43;;
22080;SDS011;11207;59.512;18.050;2024-01-30T03:40:01;9.53;;;7.97;;
22080;SDS011;11207;59.512;18.050;2024-01-30T03:42:33;11.43;;;8.63;;
22080;SDS011;11207;59.512;18.050;2024-01-30T03:44:59;10.20;;;8.13;;
22080;SDS011;11207;59.512;18.050;2024-01-30T03:47:24;10.93;;;8.23;;
22080;SDS011;11207;59.512;18.050;2024-01-30T03:49:50;10.93;;;8.67;;
22080;SDS011;11207;59.512;18.050;2024-01-30T03:52:15;10.90;;;8.47;;
22080;SDS011;11207;59.512;18.050;2024-01-30T03:54:41;12.67;;;9.30;;
22080;SDS011;11207;59.512;18.050;2024-01-30T03:57:07;11.13;;;8.73;;
22080;SDS011;11207;59.512;18.050;2024-01-30T03:59:33;12.17;;;8.97;;
22080;SDS011;11207;59.512;18.050;2024-01-30T04:01:59;13.30;;;8.97;;
22080;SDS011;11207;59.512;18.050;2024-01-30T04:04:25;12.50;;;8.67;;
22080;SDS011;11207;59.512;18.050;2024-01-30T04:06:50;14.43;;;9.47;;
22080;SDS011;11207;59.512;18.050;2024-01-30T04:09:16;13.80;;;9.67;;
22080;SDS011;11207;59.512;18.050;2024-01-30T04:11:41;13.87;;;9.23;;
22080;SDS011;11207;59.512;18.050;2024-01-30T04:14:07;13.60;;;9.37;;
22080;SDS011;11207;59.512;18.050;2024-01-30T04:16:34;13.20;;;9.07;;
22080;SDS011;11207;59.512;18.050;2024-01-30T04:18:59;10.87;;;8.20;;
22080;SDS011;11207;59.512;18.050;2024-01-30T04:21:25;10.33;;;7.80;;
22080;SDS011;11207;59.512;18.050;2024-01-30T04:23:51;11.50;;;8.43;;
22080;SDS011;11207;59.512;18.050;2024-01-30T04:26:17;11.33;;;8.17;;
22080;SDS011;11207;59.512;18.050;2024-01-30T04:28:44;9.93;;;8.07;;
22080;SDS011;11207;59.512;18.050;2024-01-30T04:31:10;10.57;;;8.60;;
22080;SDS011;11207;59.512;18.050;2024-01-30T04:33:36;11.13;;;8.60;;
22080;SDS011;11207;59.512;18.050;2024-01-30T04:36:07;12.07;;;8.53;;
22080;SDS011;11207;59.512;18.050;2024-01-30T04:38:35;10.80;;;8.20;;
22080;SDS011;11207;59.512;18.050;2024-01-30T04:41:00;11.57;;;8.80;;
22080;SDS011;11207;59.512;18.050;2024-01-30T04:43:26;11.33;;;8.73;;
22080;SDS011;11207;59.512;18.050;2024-01-30T04:45:52;11.87;;;8.50;;
22080;SDS011;11207;59.512;18.050;2024-01-30T04:48:18;10.50;;;8.27;;
22080;SDS011;11207;59.512;18.050;2024-01-30T04:50:43;11.80;;;8.07;;
22080;SDS011;11207;59.512;18.050;2024-01-30T04:53:09;11.57;;;8.27;;
22080;SDS011;11207;59.512;18.050;2024-01-30T04:55:35;10.93;;;8.40;;
22080;SDS011;11207;59.512;18.050;2024-01-30T04:58:01;12.87;;;9.20;;
22080;SDS011;11207;59.512;18.050;2024-01-30T05:00:27;10.97;;;8.50;;
22080;SDS011;11207;59.512;18.050;2024-01-30T05:02:52;11.57;;;8.83;;
22080;SDS011;11207;59.512;18.050;2024-01-30T05:05:19;11.23;;;9.27;;
22080;SDS011;11207;59.512;18.050;2024-01-30T05:07:46;11.17;;;8.90;;
22080;SDS011;11207;59.512;18.050;2024-01-30T05:10:12;12.80;;;9.10;;
22080;SDS011;11207;59.512;18.050;2024-01-30T05:12:38;11.03;;;8.43;;
22080;SDS011;11207;59.512;18.050;2024-01-30T05:15:04;12.37;;;8.83;;
22080;SDS011;11207;59.512;18.050;2024-01-30T05:17:30;12.00;;;9.33;;
22080;SDS011;11207;59.512;18.050;2024-01-30T05:19:56;10.60;;;8.17;;
22080;SDS011;11207;59.512;18.050;2024-01-30T05:22:21;11.53;;;9.00;;
22080;SDS011;11207;59.512;18.050;2024-01-30T05:24:47;11.33;;;8.97;;
22080;SDS011;11207;59.512;18.050;2024-01-30T05:27:12;10.17;;;8.47;;
22080;SDS011;11207;59.512;18.050;2024-01-30T05:29:39;9.70;;;7.67;;
22080;SDS011;11207;59.512;18.050;2024-01-30T05:32:06;9.57;;;7.70;;
22080;SDS011;11207;59.512;18.050;2024-01-30T05:34:32;10.50;;;7.77;;
22080;SDS011;11207;59.512;18.050;2024-01-30T05:36:58;10.70;;;8.27;;
22080;SDS011;11207;59.512;18.050;2024-01-30T05:39:26;10.40;;;7.87;;
22080;SDS011;11207;59.512;18.050;2024-01-30T05:41:52;11.87;;;8.60;;
22080;SDS011;11207;59.512;18.050;2024-01-30T05:44:17;12.77;;;8.40;;
22080;SDS011;11207;59.512;18.050;2024-01-30T05:46:43;12.97;;;8.87;;
22080;SDS011;11207;59.512;18.050;2024-01-30T05:49:09;15.57;;;9.03;;
22080;SDS011;11207;59.512;18.050;2024-01-30T05:51:34;12.73;;;9.00;;
22080;SDS011;11207;59.512;18.050;2024-01-30T05:54:00;12.87;;;8.90;;
22080;SDS011;11207;59.512;18.050;2024-01-30T05:56:28;15.73;;;9.37;;
22080;SDS011;11207;59.512;18.050;2024-01-30T05:58:54;13.33;;;8.90;;
22080;SDS011;11207;59.512;18.050;2024-01-30T06:01:20;13.07;;;8.53;;
22080;SDS011;11207;59.512;18.050;2024-01-30T06:03:45;14.13;;;8.77;;
22080;SDS011;11207;59.512;18.050;2024-01-30T06:06:11;13.00;;;8.60;;
22080;SDS011;11207;59.512;18.050;2024-01-30T06:08:37;14.80;;;9.23;;
22080;SDS011;11207;59.512;18.050;2024-01-30T06:11:03;10.40;;;7.77;;
22080;SDS011;11207;59.512;18.050;2024-01-30T06:13:29;13.67;;;8.40;;
22080;SDS011;11207;59.512;18.050;2024-01-30T06:15:56;14.83;;;9.60;;
22080;SDS011;11207;59.512;18.050;2024-01-30T06:18:22;12.53;;;8.53;;
22080;SDS011;11207;59.512;18.050;2024-01-30T06:20:56;14.73;;;7.30;;
22080;SDS011;11207;59.512;18.050;2024-01-30T06:23:21;14.70;;;9.17;;
22080;SDS011;11207;59.512;18.050;2024-01-30T06:25:47;14.77;;;9.33;;
22080;SDS011;11207;59.512;18.050;2024-01-30T06:28:13;15.40;;;9.43;;
22080;SDS011;11207;59.512;18.050;2024-01-30T06:30:38;12.93;;;8.83;;
22080;SDS011;11207;59.512;18.050;2024-01-30T06:33:04;14.27;;;9.27;;
22080;SDS011;11207;59.512;18.050;2024-01-30T06:35:29;15.70;;;10.20;;
22080;SDS011;11207;59.512;18.050;2024-01-30T06:38:00;13.47;;;9.27;;
22080;SDS011;11207;59.512;18.050;2024-01-30T06:40:25;14.23;;;9.40;;
22080;SDS011;11207;59.512;18.050;2024-01-30T06:42:51;12.30;;;8.80;;
22080;SDS011;11207;59.512;18.050;2024-01-30T06:45:17;11.73;;;8.37;;
22080;SDS011;11207;59.512;18.050;2024-01-30T06:47:42;13.00;;;8.53;;
22080;SDS011;11207;59.512;18.050;2024-01-30T06:50:08;14.43;;;9.23;;
22080;SDS011;11207;59.512;18.050;2024-01-30T06:52:34;14.17;;;9.27;;
22080;SDS011;11207;59.512;18.050;2024-01-30T06:54:59;13.83;;;9.40;;
22080;SDS011;11207;59.512;18.050;2024-01-30T06:57:25;13.43;;;8.90;;
22080;SDS011;11207;59.512;18.050;2024-01-30T06:59:53;15.63;;;10.30;;
22080;SDS011;11207;59.512;18.050;2024-01-30T07:02:18;13.50;;;8.80;;
22080;SDS011;11207;59.512;18.050;2024-01-30T07:04:44;12.63;;;8.73;;
22080;SDS011;11207;59.512;18.050;2024-01-30T07:07:10;14.50;;;9.37;;
22080;SDS011;11207;59.512;18.050;2024-01-30T07:09:38;13.23;;;8.87;;
22080;SDS011;11207;59.512;18.050;2024-01-30T07:12:04;14.37;;;9.77;;
22080;SDS011;11207;59.512;18.050;2024-01-30T07:14:30;14.70;;;9.80;;
22080;SDS011;11207;59.512;18.050;2024-01-30T07:17:02;13.53;;;9.50;;
22080;SDS011;11207;59.512;18.050;2024-01-30T07:19:27;13.00;;;8.77;;
22080;SDS011;11207;59.512;18.050;2024-01-30T07:21:53;13.30;;;9.10;;
22080;SDS011;11207;59.512;18.050;2024-01-30T07:24:19;12.97;;;9.00;;
22080;SDS011;11207;59.512;18.050;2024-01-30T07:26:44;15.73;;;9.60;;
22080;SDS011;11207;59.512;18.050;2024-01-30T07:29:11;13.43;;;8.70;;
22080;SDS011;11207;59.512;18.050;2024-01-30T07:31:36;15.73;;;9.43;;
22080;SDS011;11207;59.512;18.050;2024-01-30T07:34:02;15.37;;;8.93;;
22080;SDS011;11207;59.512;18.050;2024-01-30T07:36:28;15.67;;;9.97;;
22080;SDS011;11207;59.512;18.050;2024-01-30T07:38:54;14.17;;;9.20;;
22080;SDS011;11207;59.512;18.050;2024-01-30T07:41:20;13.63;;;9.10;;
22080;SDS011;11207;59.512;18.050;2024-01-30T07:43:45;11.57;;;8.53;;
22080;SDS011;11207;59.512;18.050;2024-01-30T07:46:14;14.17;;;8.33;;
22080;SDS011;11207;59.512;18.050;2024-01-30T07:48:40;12.50;;;8.57;;
22080;SDS011;11207;59.512;18.050;2024-01-30T07:51:06;13.30;;;8.40;;
22080;SDS011;11207;59.512;18.050;2024-01-30T07:53:31;14.07;;;8.67;;
22080;SDS011;11207;59.512;18.050;2024-01-30T07:55:57;11.50;;;7.70;;
22080;SDS011;11207;59.512;18.050;2024-01-30T07:58:26;13.07;;;7.97;;
22080;SDS011;11207;59.512;18.050;2024-01-30T08:00:54;9.90;;;7.40;;
22080;SDS011;11207;59.512;18.050;2024-01-30T08:03:26;10.40;;;8.07;;
22080;SDS011;11207;59.512;18.050;2024-01-30T08:05:51;9.67;;;7.50;;
22080;SDS011;11207;59.512;18.050;2024-01-30T08:11:32;9.73;;;7.27;;
22080;SDS011;11207;59.512;18.050;2024-01-30T08:13:57;8.93;;;7.17;;
22080;SDS011;11207;59.512;18.050;2024-01-30T08:16:26;12.63;;;7.23;;
22080;SDS011;11207;59.512;18.050;2024-01-30T08:18:52;8.73;;;6.90;;
22080;SDS011;11207;59.512;18.050;2024-01-30T08:21:21;9.57;;;7.17;;
22080;SDS011;11207;59.512;18.050;2024-01-30T08:23:47;10.67;;;7.13;;
22080;SDS011;11207;59.512;18.050;2024-01-30T08:26:12;8.00;;;6.27;;
22080;SDS011;11207;59.512;18.050;2024-01-30T08:28:38;7.93;;;6.60;;
22080;SDS011;11207;59.512;18.050;2024-01-30T08:31:04;10.37;;;6.70;;
22080;SDS011;11207;59.512;18.050;2024-01-30T08:33:30;8.27;;;6.63;;
22080;SDS011;11207;59.512;18.050;2024-01-30T08:35:56;8.43;;;6.77;;
22080;SDS011;11207;59.512;18.050;2024-01-30T08:38:21;7.10;;;6.17;;
22080;SDS011;11207;59.512;18.050;2024-01-30T08:40:47;8.43;;;6.57;;
22080;SDS011;11207;59.512;18.050;2024-01-30T08:43:13;7.93;;;6.53;;
22080;SDS011;11207;59.512;18.050;2024-01-30T08:45:38;8.33;;;6.97;;
22080;SDS011;11207;59.512;18.050;2024-01-30T08:48:04;7.83;;;6.53;;
22080;SDS011;11207;59.512;18.050;2024-01-30T08:50:30;7.27;;;6.17;;
22080;SDS011;11207;59.512;18.050;2024-01-30T08:52:56;8.60;;;6.80;;
22080;SDS011;11207;59.512;18.050;2024-01-30T08:55:22;8.17;;;6.30;;
22080;SDS011;11207;59.512;18.050;2024-01-30T08:57:48;8.07;;;6.53;;
22080;SDS011;11207;59.512;18.050;2024-01-30T09:00:14;7.83;;;6.63;;
22080;SDS011;11207;59.512;18.050;2024-01-30T09:02:40;7.77;;;6.60;;
22080;SDS011;11207;59.512;18.050;2024-01-30T09:05:06;8.80;;;6.87;;
22080;SDS011;11207;59.512;18.050;2024-01-30T09:07:33;7.93;;;6.80;;
22080;SDS011;11207;59.512;18.050;2024-01-30T09:09:58;8.07;;;6.60;;
22080;SDS011;11207;59.512;18.050;2024-01-30T09:12:24;9.07;;;6.57;;
22080;SDS011;11207;59.512;18.050;2024-01-30T09:14:50;9.00;;;7.17;;
22080;SDS011;11207;59.512;18.050;2024-01-30T09:17:15;7.37;;;6.43;;
22080;SDS011;11207;59.512;18.050;2024-01-30T09:19:41;11.13;;;6.90;;
22080;SDS011;11207;59.512;18.050;2024-01-30T09:22:07;14.27;;;8.23;;
22080;SDS011;11207;59.512;18.050;2024-01-30T09:24:32;9.00;;;6.77;;
22080;SDS011;11207;59.512;18.050;2024-01-30T09:26:58;9.60;;;6.90;;
22080;SDS011;11207;59.512;18.050;2024-01-30T09:29:24;10.23;;;7.30;;
22080;SDS011;11207;59.512;18.050;2024-01-30T09:31:50;7.73;;;6.40;;
22080;SDS011;11207;59.512;18.050;2024-01-30T09:34:16;9.23;;;6.97;;
22080;SDS011;11207;59.512;18.050;2024-01-30T09:36:41;11.83;;;7.00;;
22080;SDS011;11207;59.512;18.050;2024-01-30T09:39:07;8.03;;;6.20;;
22080;SDS011;11207;59.512;18.050;2024-01-30T09:41:33;9.50;;;6.93;;
22080;SDS011;11207;59.512;18.050;2024-01-30T09:44:09;10.60;;;7.20;;
22080;SDS011;11207;59.512;18.050;2024-01-30T09:46:37;10.77;;;7.40;;
22080;SDS011;11207;59.512;18.050;2024-01-30T09:49:04;12.80;;;8.10;;
22080;SDS011;11207;59.512;18.050;2024-01-30T09:51:31;14.10;;;8.03;;
22080;SDS011;11207;59.512;18.050;2024-01-30T09:53:58;13.93;;;8.27;;
22080;SDS011;11207;59.512;18.050;2024-01-30T09:56:24;15.20;;;8.80;;
22080;SDS011;11207;59.512;18.050;2024-01-30T09:58:49;17.17;;;9.13;;
22080;SDS011;11207;59.512;18.050;2024-01-30T10:01:15;14.90;;;8.90;;
22080;SDS011;11207;59.512;18.050;2024-01-30T10:03:44;14.43;;;8.33;;
22080;SDS011;11207;59.512;18.050;2024-01-30T10:06:10;15.10;;;8.50;;
22080;SDS011;11207;59.512;18.050;2024-01-30T10:08:36;14.27;;;8.20;;
22080;SDS011;11207;59.512;18.050;2024-01-30T10:11:02;13.23;;;8.40;;
22080;SDS011;11207;59.512;18.050;2024-01-30T10:13:28;12.77;;;8.13;;
22080;SDS011;11207;59.512;18.050;2024-01-30T10:15:54;15.47;;;7.97;;
22080;SDS011;11207;59.512;18.050;2024-01-30T10:18:22;12.90;;;8.10;;
22080;SDS011;11207;59.512;18.050;2024-01-30T10:20:48;16.73;;;8.70;;
22080;SDS011;11207;59.512;18.050;2024-01-30T10:23:14;12.40;;;7.50;;
22080;SDS011;11207;59.512;18.050;2024-01-30T10:25:40;14.23;;;8.10;;
22080;SDS011;11207;59.512;18.050;2024-01-30T10:28:06;17.33;;;8.53;;
22080;SDS011;11207;59.512;18.050;2024-01-30T10:30:32;15.20;;;8.47;;
22080;SDS011;11207;59.512;18.050;2024-01-30T10:32:58;13.50;;;7.43;;
22080;SDS011;11207;59.512;18.050;2024-01-30T10:35:23;12.03;;;7.73;;
22080;SDS011;11207;59.512;18.050;2024-01-30T10:37:49;12.43;;;8.20;;
22080;SDS011;11207;59.512;18.050;2024-01-30T10:40:15;11.87;;;8.07;;
22080;SDS011;11207;59.512;18.050;2024-01-30T10:42:44;13.53;;;8.37;;
22080;SDS011;11207;59.512;18.050;2024-01-30T10:45:11;13.97;;;8.30;;
22080;SDS011;11207;59.512;18.050;2024-01-30T10:47:39;13.30;;;8.17;;
22080;SDS011;11207;59.512;18.050;2024-01-30T10:50:10;19.27;;;9.37;;
22080;SDS011;11207;59.512;18.050;2024-01-30T10:52:36;14.50;;;7.60;;
22080;SDS011;11207;59.512;18.050;2024-01-30T10:55:03;17.53;;;9.97;;
22080;SDS011;11207;59.512;18.050;2024-01-30T10:57:31;19.23;;;9.90;;
22080;SDS011;11207;59.512;18.050;2024-01-30T11:00:06;14.57;;;8.47;;
22080;SDS011;11207;59.512;18.050;2024-01-30T11:02:40;16.93;;;9.23;;
22080;SDS011;11207;59.512;18.050;2024-01-30T11:05:08;21.77;;;9.60;;
22080;SDS011;11207;59.512;18.050;2024-01-30T11:07:33;18.87;;;9.90;;
22080;SDS011;11207;59.512;18.050;2024-01-30T11:12:26;16.00;;;9.20;;
22080;SDS011;11207;59.512;18.050;2024-01-30T11:15:03;18.63;;;9.00;;
22080;SDS011;11207;59.512;18.050;2024-01-30T11:20:10;18.87;;;9.63;;
22080;SDS011;11207;59.512;18.050;2024-01-30T11:22:41;15.83;;;9.13;;
22080;SDS011;11207;59.512;18.050;2024-01-30T11:25:13;19.93;;;10.07;;
22080;SDS011;11207;59.512;18.050;2024-01-30T11:27:44;14.43;;;9.57;;
22080;SDS011;11207;59.512;18.050;2024-01-30T11:30:10;15.50;;;9.03;;
22080;SDS011;11207;59.512;18.050;2024-01-30T11:32:45;15.00;;;8.60;;
22080;SDS011;11207;59.512;18.050;2024-01-30T11:35:11;15.40;;;8.77;;
22080;SDS011;11207;59.512;18.050;2024-01-30T11:37:37;18.27;;;9.87;;
22080;SDS011;11207;59.512;18.050;2024-01-30T11:40:06;14.87;;;8.80;;
22080;SDS011;11207;59.512;18.050;2024-01-30T11:42:33;19.47;;;10.23;;
22080;SDS011;11207;59.512;18.050;2024-01-30T11:45:02;15.83;;;10.03;;
22080;SDS011;11207;59.512;18.050;2024-01-30T11:47:28;17.30;;;9.93;;
22080;SDS011;11207;59.512;18.050;2024-01-30T11:49:54;18.07;;;9.93;;
22080;SDS011;11207;59.512;18.050;2024-01-30T11:52:20;20.87;;;11.20;;
22080;SDS011;11207;59.512;18.050;2024-01-30T11:54:45;22.97;;;11.60;;
22080;SDS011;11207;59.512;18.050;2024-01-30T11:57:11;16.10;;;10.23;;
22080;SDS011;11207;59.512;18.050;2024-01-30T11:59:37;21.33;;;10.63;;
22080;SDS011;11207;59.512;18.050;2024-01-30T12:02:02;19.13;;;9.93;;
22080;SDS011;11207;59.512;18.050;2024-01-30T12:04:29;19.00;;;10.23;;
22080;SDS011;11207;59.512;18.050;2024-01-30T12:06:55;17.13;;;10.70;;
22080;SDS011;11207;59.512;18.050;2024-01-30T12:09:29;18.87;;;10.93;;
22080;SDS011;11207;59.512;18.050;2024-01-30T12:12:06;19.00;;;10.43;;
22080;SDS011;11207;59.512;18.050;2024-01-30T12:14:36;18.70;;;10.47;;
22080;SDS011;11207;59.512;18.050;2024-01-30T12:17:04;18.87;;;10.13;;
22080;SDS011;11207;59.512;18.050;2024-01-30T12:19:30;14.70;;;9.57;;
22080;SDS011;11207;59.512;18.050;2024-01-30T12:21:58;19.50;;;10.80;;
22080;SDS011;11207;59.512;18.050;2024-01-30T12:24:25;17.37;;;9.90;;
22080;SDS011;11207;59.512;18.050;2024-01-30T12:26:52;21.23;;;11.83;;
22080;SDS011;11207;59.512;18.050;2024-01-30T12:29:24;20.37;;;10.70;;
22080;SDS011;11207;59.512;18.050;2024-01-30T12:31:52;19.30;;;10.37;;
22080;SDS011;11207;59.512;18.050;2024-01-30T12:34:19;17.90;;;10.27;;
22080;SDS011;11207;59.512;18.050;2024-01-30T12:36:46;13.77;;;8.93;;
22080;SDS011;11207;59.512;18.050;2024-01-30T12:39:14;16.10;;;9.83;;
22080;SDS011;11207;59.512;18.050;2024-01-30T12:41:40;17.43;;;9.80;;
22080;SDS011;11207;59.512;18.050;2024-01-30T12:44:06;15.73;;;9.50;;
22080;SDS011;11207;59.512;18.050;2024-01-30T12:46:34;14.73;;;9.03;;
22080;SDS011;11207;59.512;18.050;2024-01-30T12:49:00;20.77;;;10.53;;
22080;SDS011;11207;59.512;18.050;2024-01-30T12:51:25;15.50;;;9.90;;
22080;SDS011;11207;59.512;18.050;2024-01-30T12:53:51;17.40;;;10.57;;
22080;SDS011;11207;59.512;18.050;2024-01-30T12:56:19;20.63;;;11.37;;
22080;SDS011;11207;59.512;18.050;2024-01-30T12:58:45;18.83;;;10.50;;
22080;SDS011;11207;59.512;18.050;2024-01-30T13:01:11;18.17;;;10.57;;
22080;SDS011;11207;59.512;18.050;2024-01-30T13:03:37;14.23;;;9.30;;
22080;SDS011;11207;59.512;18.050;2024-01-30T13:06:03;17.67;;;10.97;;
22080;SDS011;11207;59.512;18.050;2024-01-30T13:08:29;21.10;;;11.47;;
22080;SDS011;11207;59.512;18.050;2024-01-30T13:10:54;15.90;;;10.03;;
22080;SDS011;11207;59.512;18.050;2024-01-30T13:13:20;20.07;;;10.97;;
22080;SDS011;11207;59.512;18.050;2024-01-30T13:15:45;18.43;;;10.50;;
22080;SDS011;11207;59.512;18.050;2024-01-30T13:18:12;19.83;;;10.60;;
22080;SDS011;11207;59.512;18.050;2024-01-30T13:20:37;20.33;;;11.50;;
22080;SDS011;11207;59.512;18.050;2024-01-30T13:23:03;16.77;;;10.37;;
22080;SDS011;11207;59.512;18.050;2024-01-30T13:25:29;22.70;;;11.77;;
22080;SDS011;11207;59.512;18.050;2024-01-30T13:27:55;23.07;;;12.63;;
22080;SDS011;11207;59.512;18.050;2024-01-30T13:30:21;21.57;;;10.93;;
22080;SDS011;11207;59.512;18.050;2024-01-30T13:32:47;22.67;;;11.43;;
22080;SDS011;11207;59.512;18.050;2024-01-30T13:35:12;20.17;;;11.73;;
22080;SDS011;11207;59.512;18.050;2024-01-30T13:37:38;22.00;;;11.33;;
22080;SDS011;11207;59.512;18.050;2024-01-30T13:40:07;23.00;;;11.00;;
22080;SDS011;11207;59.512;18.050;2024-01-30T13:42:36;22.33;;;11.77;;
22080;SDS011;11207;59.512;18.050;2024-01-30T13:45:02;18.23;;;10.83;;
22080;SDS011;11207;59.512;18.050;2024-01-30T13:47:28;24.77;;;12.73;;
22080;SDS011;11207;59.512;18.050;2024-01-30T13:49:53;19.47;;;11.43;;
22080;SDS011;11207;59.512;18.050;2024-01-30T13:52:19;21.43;;;11.73;;
22080;SDS011;11207;59.512;18.050;2024-01-30T13:54:45;21.80;;;12.47;;
22080;SDS011;11207;59.512;18.050;2024-01-30T13:57:10;25.83;;;12.70;;
22080;SDS011;11207;59.512;18.050;2024-01-30T13:59:37;26.93;;;12.77;;
22080;SDS011;11207;59.512;18.050;2024-01-30T14:02:03;26.47;;;12.77;;
22080;SDS011;11207;59.512;18.050;2024-01-30T14:04:29;23.83;;;12.87;;
22080;SDS011;11207;59.512;18.050;2024-01-30T14:06:54;25.63;;;13.73;;
22080;SDS011;11207;59.512;18.050;2024-01-30T14:09:20;26.60;;;13.27;;
22080;SDS011;11207;59.512;18.050;2024-01-30T14:11:46;28.13;;;13.00;;
22080;SDS011;11207;59.512;18.050;2024-01-30T14:14:12;25.20;;;13.13;;
22080;SDS011;11207;59.512;18.050;2024-01-30T14:16:37;25.97;;;13.60;;
22080;SDS011;11207;59.512;18.050;2024-01-30T14:19:03;28.63;;;14.23;;
22080;SDS011;11207;59.512;18.050;2024-01-30T14:21:29;28.60;;;14.30;;
22080;SDS011;11207;59.512;18.050;2024-01-30T14:23:55;32.53;;;15.07;;